Time;durP1;ratioP1;P1;durP2;ratioP2;P2;SDS_P1;SDS_P2;PMS_P1;PMS_P2;Temp;Humidity;BMP_temperature;BMP_pressure;BME280_temperature;BME280_humidity;BME280_pressure;Samples;Min_cycle;Max_cycle;Signal;HPM_P1;HPM_P2
2022/01/27 00:00:43;;;;;;;5.25;2.90;;;20.00;44.80;;;;;;5030865;28;20057;-81
2022/01/27 00:05:34;;;;;;;4.97;2.78;;;20.00;44.80;;;;;;5030228;28;20077;-82
2022/01/27 00:08:24;;;;;;;7.03;3.70;;;19.90;44.80;;;;;;5030883;28;20135;-82
2022/01/27 00:10:54;;;;;;;6.47;2.95;;;19.90;44.80;;;;;;5047568;28;20139;-81
2022/01/27 00:13:28;;;;;;;4.15;2.53;;;19.90;44.80;;;;;;5030537;28;20559;-81
2022/01/27 00:16:11;;;;;;;6.88;3.28;;;19.90;44.80;;;;;;5030854;28;20049;-81
2022/01/27 00:18:36;;;;;;;6.15;2.78;;;19.90;44.80;;;;;;5030610;28;20136;-82
2022/01/27 00:21:02;;;;;;;5.85;3.08;;;19.90;44.80;;;;;;5034774;28;20119;-82
2022/01/27 00:23:27;;;;;;;5.28;2.88;;;19.90;44.80;;;;;;5031708;28;20081;-81
2022/01/27 00:25:53;;;;;;;5.05;2.92;;;19.90;44.80;;;;;;5051589;28;20082;-82
2022/01/27 00:28:18;;;;;;;4.32;2.30;;;19.90;44.80;;;;;;5034406;28;20090;-81
2022/01/27 00:30:44;;;;;;;5.03;2.63;;;19.80;44.80;;;;;;5034743;28;20088;-81
2022/01/27 00:33:09;;;;;;;4.28;2.53;;;19.80;44.80;;;;;;5033787;28;20625;-82
2022/01/27 00:35:35;;;;;;;5.32;2.88;;;19.80;44.80;;;;;;5034837;28;20102;-82
2022/01/27 00:38:01;;;;;;;4.97;2.83;;;19.80;44.80;;;;;;5033334;28;20575;-81
2022/01/27 00:40:27;;;;;;;4.72;2.38;;;19.80;44.80;;;;;;5033678;28;20404;-81
2022/01/27 00:42:53;;;;;;;5.47;3.50;;;19.80;44.90;;;;;;5034123;28;20130;-82
2022/01/27 00:45:18;;;;;;;5.72;2.78;;;19.80;44.90;;;;;;5034412;28;20045;-82
2022/01/27 00:47:44;;;;;;;4.97;3.00;;;19.70;44.80;;;;;;5033669;28;20208;-81
2022/01/27 00:50:09;;;;;;;4.88;3.00;;;19.70;44.80;;;;;;5034193;28;20052;-82
2022/01/27 00:52:42;;;;;;;5.38;2.75;;;19.70;44.80;;;;;;5034142;28;20128;-82
2022/01/27 00:55:09;;;;;;;5.13;3.00;;;19.70;44.80;;;;;;5033778;28;20041;-82
2022/01/27 01:00:13;;;;;;;5.88;3.13;;;19.70;44.90;;;;;;5033309;28;20075;-81
2022/01/27 01:02:52;;;;;;;4.82;2.70;;;19.70;44.90;;;;;;5034253;28;20056;-82
2022/01/27 01:05:47;;;;;;;5.88;2.88;;;19.70;44.90;;;;;;5033750;28;20049;-82
2022/01/27 01:19:30;;;;;;;7.20;3.05;;;19.60;44.90;;;;;;4954403;28;20086;-82
2022/01/27 01:30:20;;;;;;;3.95;2.25;;;20.10;45.20;;;;;;5032164;28;20076;-82
2022/01/27 01:32:58;;;;;;;5.13;2.60;;;19.60;45.00;;;;;;5027663;28;20082;-82
2022/01/27 01:35:46;;;;;;;4.63;2.83;;;19.50;45.00;;;;;;5052549;28;20087;-81
2022/01/27 01:38:11;;;;;;;5.05;2.72;;;19.50;44.90;;;;;;5053049;28;20083;-82
2022/01/27 01:40:37;;;;;;;5.25;2.90;;;19.50;44.90;;;;;;5053185;28;20071;-81
2022/01/27 01:43:02;;;;;;;4.80;2.70;;;19.50;45.00;;;;;;5052480;28;20052;-81
2022/01/27 01:45:33;;;;;;;4.65;2.80;;;19.50;45.00;;;;;;5052966;28;20051;-81
2022/01/27 01:47:58;;;;;;;4.80;2.60;;;19.50;45.00;;;;;;5052996;28;20070;-81
2022/01/27 01:50:24;;;;;;;5.25;2.40;;;19.50;45.00;;;;;;5052109;28;20511;-81
2022/01/27 01:52:49;;;;;;;4.88;2.70;;;19.50;45.00;;;;;;5052636;28;20067;-81
2022/01/27 01:55:15;;;;;;;5.22;3.25;;;19.50;45.00;;;;;;5052691;28;20040;-82
2022/01/27 01:57:40;;;;;;;4.50;2.67;;;19.40;45.00;;;;;;5052590;28;20128;-81
2022/01/27 02:00:07;;;;;;;5.30;2.78;;;19.40;45.00;;;;;;5052824;28;20044;-81
2022/01/27 02:02:32;;;;;;;4.82;2.50;;;19.40;45.00;;;;;;5053168;28;20056;-82
2022/01/27 02:04:58;;;;;;;5.22;3.03;;;19.40;45.00;;;;;;5052179;28;20048;-82
2022/01/27 02:07:36;;;;;;;4.55;2.58;;;20.50;45.50;;;;;;5052954;28;20053;-82
2022/01/27 02:18:08;;;;;;;5.68;2.50;;;19.40;45.00;;;;;;5051759;28;20056;-81
2022/01/27 02:20:35;;;;;;;5.20;2.60;;;19.90;45.30;;;;;;5052658;28;20149;-81
2022/01/27 02:23:00;;;;;;;5.43;2.70;;;19.30;45.00;;;;;;5041471;28;20226;-82
2022/01/27 02:25:26;;;;;;;4.38;2.60;;;19.30;45.00;;;;;;5051358;28;20052;-81
2022/01/27 02:27:52;;;;;;;5.63;2.58;;;19.30;45.00;;;;;;5052340;28;20399;-81
2022/01/27 02:30:18;;;;;;;4.38;2.60;;;19.30;45.00;;;;;;5032560;28;20053;-81
2022/01/27 02:32:45;;;;;;;5.45;2.75;;;19.30;45.00;;;;;;5031584;28;20052;-81
2022/01/27 02:35:10;;;;;;;4.30;2.65;;;19.30;45.00;;;;;;5032209;28;20113;-81
2022/01/27 02:37:36;;;;;;;5.05;2.65;;;19.30;45.00;;;;;;5031967;28;20098;-84
2022/01/27 02:40:02;;;;;;;5.68;2.63;;;19.30;45.00;;;;;;5031494;28;20057;-83
2022/01/27 02:42:35;;;;;;;4.40;2.50;;;19.30;45.10;;;;;;5031434;28;20549;-82
2022/01/27 02:45:03;;;;;;;4.45;2.65;;;19.30;45.10;;;;;;5032153;28;20052;-82
2022/01/27 02:47:28;;;;;;;4.28;2.22;;;19.20;45.00;;;;;;5031355;28;20056;-82
2022/01/27 02:49:54;;;;;;;5.05;2.60;;;19.20;45.00;;;;;;5034116;28;20057;-82
2022/01/27 02:52:19;;;;;;;4.60;2.53;;;19.20;45.10;;;;;;5031085;28;20056;-81
2022/01/27 02:54:45;;;;;;;5.40;2.80;;;19.20;45.00;;;;;;5031974;28;20040;-82
2022/01/27 02:57:11;;;;;;;5.15;2.63;;;19.20;45.10;;;;;;5031680;28;20106;-82
2022/01/27 02:59:36;;;;;;;3.70;2.17;;;19.20;45.10;;;;;;5030935;28;20156;-82
2022/01/27 03:02:02;;;;;;;3.88;2.35;;;19.20;45.10;;;;;;5031552;28;20049;-82
2022/01/27 03:04:30;;;;;;;4.88;2.78;;;19.20;45.10;;;;;;5031420;28;20053;-82
2022/01/27 03:06:55;;;;;;;5.45;2.90;;;19.20;45.10;;;;;;5031016;28;20421;-82
2022/01/27 03:09:21;;;;;;;4.82;2.40;;;19.20;45.10;;;;;;5031450;28;20064;-82
2022/01/27 03:11:49;;;;;;;5.18;2.80;;;19.20;45.10;;;;;;5031234;28;20060;-82
2022/01/27 03:14:19;;;;;;;5.25;2.92;;;19.20;45.10;;;;;;5014542;28;20094;-82
2022/01/27 03:16:44;;;;;;;5.43;2.75;;;19.20;45.10;;;;;;5051388;28;20439;-82
2022/01/27 03:19:10;;;;;;;4.10;2.20;;;19.20;45.00;;;;;;5031207;28;20049;-82
2022/01/27 03:21:36;;;;;;;4.82;2.70;;;19.20;45.00;;;;;;5028361;28;20079;-82
2022/01/27 03:24:02;;;;;;;4.90;2.75;;;19.20;45.00;;;;;;5031333;28;20071;-82
2022/01/27 03:26:28;;;;;;;4.93;2.28;;;19.20;45.10;;;;;;5031271;28;20046;-82
2022/01/27 03:28:53;;;;;;;3.95;2.28;;;19.10;45.00;;;;;;5030644;28;20412;-82
2022/01/27 03:31:19;;;;;;;5.07;2.50;;;19.20;45.10;;;;;;5031561;28;20155;-82
2022/01/27 03:33:45;;;;;;;3.88;2.17;;;19.10;45.00;;;;;;5031514;28;20049;-83
2022/01/27 03:36:11;;;;;;;4.15;2.10;;;19.20;45.00;;;;;;5030429;28;20558;-82
2022/01/27 03:38:36;;;;;;;4.00;2.30;;;19.10;45.00;;;;;;5031255;28;20060;-82
2022/01/27 03:41:06;;;;;;;4.70;2.75;;;19.10;45.00;;;;;;5031478;28;20044;-82
2022/01/27 03:43:32;;;;;;;3.80;2.28;;;19.40;45.20;;;;;;5030433;28;20068;-82
2022/01/27 03:45:57;;;;;;;4.78;2.17;;;19.10;45.00;;;;;;5031493;28;20076;-82
2022/01/27 03:48:23;;;;;;;5.10;2.38;;;19.10;45.00;;;;;;5031096;28;20045;-83
2022/01/27 03:50:48;;;;;;;4.15;2.55;;;19.10;45.00;;;;;;5030713;28;20052;-82
2022/01/27 03:53:15;;;;;;;4.50;2.72;;;19.10;45.00;;;;;;5033005;28;20052;-83
2022/01/27 03:55:41;;;;;;;4.50;2.20;;;19.10;45.00;;;;;;5037461;28;20052;-82
2022/01/27 03:58:07;;;;;;;4.60;2.35;;;19.10;45.00;;;;;;5037589;28;20044;-82
2022/01/27 04:00:33;;;;;;;4.20;2.40;;;19.10;45.00;;;;;;5037654;28;20045;-82
2022/01/27 04:05:33;;;;;;;4.50;2.40;;;19.10;45.00;;;;;;5037573;28;20049;-82
2022/01/27 04:07:58;;;;;;;4.10;1.90;;;19.10;45.00;;;;;;5037385;28;20052;-82
2022/01/27 04:10:24;;;;;;;5.57;2.72;;;19.10;45.00;;;;;;5036956;28;20784;-82
2022/01/27 04:12:49;;;;;;;5.05;2.70;;;19.10;45.00;;;;;;5037564;28;20092;-82
2022/01/27 04:15:15;;;;;;;4.57;2.60;;;19.10;45.00;;;;;;5037624;28;20075;-82
2022/01/27 04:17:41;;;;;;;5.75;2.47;;;19.10;45.00;;;;;;5036796;28;20116;-82
2022/01/27 04:20:07;;;;;;;5.07;2.70;;;19.10;45.00;;;;;;5037345;28;20510;-82
2022/01/27 04:22:32;;;;;;;4.93;2.67;;;19.10;45.00;;;;;;5037547;28;20132;-83
2022/01/27 04:24:58;;;;;;;4.47;2.10;;;19.10;45.00;;;;;;5036879;28;20045;-82
2022/01/27 04:27:29;;;;;;;3.65;2.20;;;19.00;44.90;;;;;;5037338;28;20055;-82
2022/01/27 04:29:55;;;;;;;4.50;2.65;;;19.00;44.90;;;;;;5037873;28;20101;-82
2022/01/27 04:32:26;;;;;;;5.95;3.10;;;19.00;45.00;;;;;;5036542;28;20056;-82
2022/01/27 04:34:54;;;;;;;4.40;2.42;;;19.00;44.90;;;;;;5037421;28;20492;-82
2022/01/27 04:37:23;;;;;;;4.47;2.83;;;19.00;44.90;;;;;;5037058;28;20057;-82
2022/01/27 04:40:05;;;;;;;4.43;2.47;;;19.00;44.90;;;;;;5036473;28;20053;-82
2022/01/27 04:42:44;;;;;;;4.25;2.60;;;19.00;44.90;;;;;;5037263;28;20052;-82
2022/01/27 04:45:12;;;;;;;4.40;2.20;;;19.00;44.90;;;;;;5036878;28;20797;-82
2022/01/27 04:47:44;;;;;;;4.43;2.20;;;19.00;45.40;;;;;;5021168;28;20431;-82
2022/01/27 04:50:09;;;;;;;4.88;2.63;;;19.00;45.10;;;;;;5037488;28;20049;-82
2022/01/27 04:52:39;;;;;;;3.97;2.15;;;19.00;45.10;;;;;;5036337;28;20041;-81
2022/01/27 04:55:09;;;;;;;4.95;2.10;;;19.00;45.10;;;;;;5037118;28;20076;-82
2022/01/27 04:57:37;;;;;;;5.18;2.42;;;19.00;45.20;;;;;;5037099;28;20067;-82
2022/01/27 05:00:04;;;;;;;5.80;2.30;;;19.00;45.20;;;;;;5036352;28;20060;-82
2022/01/27 05:04:55;;;;;;;4.47;2.15;;;19.10;45.30;;;;;;5053285;28;20147;-82
2022/01/27 05:07:20;;;;;;;3.85;2.03;;;19.10;45.30;;;;;;5033483;28;20057;-82
2022/01/27 05:09:55;;;;;;;3.78;1.88;;;19.10;45.30;;;;;;5033943;28;20061;-82
2022/01/27 05:13:09;;;;;;;3.35;1.60;;;19.20;45.40;;;;;;5033795;28;20045;-82
2022/01/27 05:15:07;;;;;;;2.83;1.60;;;19.20;45.50;;;;;;5032273;28;20091;-82
2022/01/27 05:17:32;;;;;;;3.72;1.95;;;19.20;45.50;;;;;;5050342;28;20045;-82
2022/01/27 05:19:58;;;;;;;3.13;1.70;;;19.30;45.50;;;;;;5033550;28;20665;-82
2022/01/27 05:22:24;;;;;;;4.28;1.85;;;19.30;45.50;;;;;;5033104;28;20080;-82
2022/01/27 05:24:49;;;;;;;3.47;1.77;;;19.30;45.50;;;;;;5051588;28;20545;-82
2022/01/27 05:27:15;;;;;;;3.40;1.90;;;19.30;45.50;;;;;;5050670;28;20101;-81
2022/01/27 05:29:40;;;;;;;3.83;1.90;;;19.30;45.50;;;;;;5033368;28;20052;-82
2022/01/27 05:32:06;;;;;;;4.13;1.95;;;19.40;45.60;;;;;;5033581;28;20179;-82
2022/01/27 05:34:32;;;;;;;3.92;1.92;;;19.40;45.60;;;;;;5032484;28;20510;-82
2022/01/27 05:36:58;;;;;;;3.97;1.75;;;19.40;45.50;;;;;;5033355;28;20057;-82
2022/01/27 05:39:23;;;;;;;3.53;2.17;;;19.50;45.60;;;;;;5032994;28;20053;-82
2022/01/27 05:41:49;;;;;;;4.00;2.10;;;19.50;45.50;;;;;;5033738;28;20781;-81
2022/01/27 05:44:14;;;;;;;3.70;1.92;;;19.50;45.50;;;;;;5034153;28;20041;-82
2022/01/27 05:46:40;;;;;;;3.22;1.80;;;19.60;45.50;;;;;;5033654;28;20049;-82
2022/01/27 05:49:05;;;;;;;4.68;2.10;;;19.60;45.50;;;;;;5032321;28;20044;-82
2022/01/27 05:51:31;;;;;;;3.78;1.90;;;19.60;45.40;;;;;;5033024;28;20049;-82
2022/01/27 05:53:56;;;;;;;3.80;1.83;;;19.60;45.40;;;;;;5033037;28;20049;-83
2022/01/27 05:56:22;;;;;;;3.00;1.60;;;19.60;45.30;;;;;;5032594;28;20044;-84
2022/01/27 05:58:47;;;;;;;3.67;1.95;;;19.70;45.30;;;;;;5033219;28;20045;-84
2022/01/27 06:01:13;;;;;;;2.92;1.73;;;19.70;45.30;;;;;;5031638;28;20140;-83
2022/01/27 06:03:38;;;;;;;2.58;1.45;;;19.70;45.30;;;;;;5032439;28;20045;-84
2022/01/27 06:06:04;;;;;;;3.30;1.70;;;19.70;45.30;;;;;;5032827;28;20045;-84
2022/01/27 06:08:30;;;;;;;3.20;1.65;;;19.70;45.20;;;;;;5032777;28;20064;-84
2022/01/27 06:10:59;;;;;;;3.33;1.80;;;19.70;45.20;;;;;;5032270;28;20044;-83
2022/01/27 06:13:24;;;;;;;3.35;1.52;;;19.80;45.30;;;;;;5032518;28;20068;-84
2022/01/27 06:15:50;;;;;;;3.65;1.90;;;19.80;45.20;;;;;;5032703;28;20040;-84
2022/01/27 06:18:15;;;;;;;3.95;1.67;;;19.80;45.20;;;;;;5030960;28;20052;-84
2022/01/27 06:20:44;;;;;;;3.70;1.58;;;19.80;45.20;;;;;;5032794;28;20048;-84
2022/01/27 06:23:09;;;;;;;3.03;1.63;;;19.80;45.20;;;;;;5032790;28;20484;-83
2022/01/27 06:25:35;;;;;;;3.35;1.73;;;19.80;45.20;;;;;;5031907;28;20041;-83
2022/01/27 06:28:01;;;;;;;2.60;1.30;;;19.80;45.10;;;;;;5016272;28;20488;-84
2022/01/27 06:30:26;;;;;;;3.75;1.60;;;19.80;45.10;;;;;;5028759;28;20056;-84
2022/01/27 06:32:52;;;;;;;2.75;1.50;;;19.90;45.20;;;;;;5023431;28;20078;-84
2022/01/27 06:35:17;;;;;;;2.47;1.27;;;19.90;45.20;;;;;;5043472;28;20401;-84
2022/01/27 06:37:45;;;;;;;3.30;1.58;;;19.90;45.20;;;;;;5047735;28;20053;-84
2022/01/27 06:40:20;;;;;;;2.10;1.00;;;19.90;45.10;;;;;;3270178;28;10020695;-83
2022/01/27 06:42:45;;;;;;;3.45;1.55;;;19.90;45.10;;;;;;5033816;28;20865;-84
2022/01/27 06:45:11;;;;;;;2.42;1.20;;;19.90;45.10;;;;;;5030756;28;20072;-84
2022/01/27 06:47:37;;;;;;;2.60;1.38;;;19.90;45.10;;;;;;5031587;28;20053;-83
2022/01/27 06:50:03;;;;;;;3.05;1.35;;;20.00;45.20;;;;;;5015767;28;20489;-84
2022/01/27 06:52:29;;;;;;;3.08;1.27;;;20.00;45.20;;;;;;5024736;28;20044;-83
2022/01/27 06:54:55;;;;;;;2.88;1.30;;;20.00;45.20;;;;;;5035157;28;20098;-84
2022/01/27 06:57:22;;;;;;;2.95;1.35;;;20.00;45.20;;;;;;5050493;28;20072;-83
2022/01/27 06:59:48;;;;;;;2.88;1.45;;;20.00;45.20;;;;;;5031268;28;20052;-83
2022/01/27 07:02:13;;;;;;;2.90;1.30;;;20.00;45.20;;;;;;5033328;28;20040;-84
2022/01/27 07:04:39;;;;;;;2.13;1.27;;;20.10;45.20;;;;;;5035469;28;20128;-83
2022/01/27 07:07:05;;;;;;;2.55;1.30;;;20.30;45.30;;;;;;5031234;28;20404;-83
2022/01/27 07:09:30;;;;;;;2.88;1.33;;;20.10;45.20;;;;;;5031393;28;20484;-84
2022/01/27 07:11:56;;;;;;;2.78;1.30;;;20.10;45.20;;;;;;5031277;28;20498;-83
2022/01/27 07:14:21;;;;;;;2.22;1.20;;;20.10;45.10;;;;;;5030785;28;20045;-80
2022/01/27 07:16:47;;;;;;;2.25;1.23;;;20.20;45.20;;;;;;5031237;28;20048;-80
2022/01/27 07:19:13;;;;;;;2.80;1.27;;;20.20;45.10;;;;;;5031737;28;20080;-82
2022/01/27 07:21:38;;;;;;;3.50;1.52;;;20.20;45.20;;;;;;5031142;28;20123;-81
2022/01/27 07:24:04;;;;;;;2.90;1.30;;;20.20;45.10;;;;;;5031335;28;20838;-81
2022/01/27 07:26:30;;;;;;;2.83;1.45;;;20.20;45.00;;;;;;5032195;28;20037;-80
2022/01/27 07:28:56;;;;;;;3.47;1.50;;;20.30;45.10;;;;;;5030645;28;20049;-80
2022/01/27 07:31:21;;;;;;;2.00;1.20;;;20.30;45.00;;;;;;5033554;28;20061;-80
2022/01/27 07:33:48;;;;;;;2.80;1.23;;;20.80;45.30;;;;;;5029064;28;20067;-80
2022/01/27 07:36:17;;;;;;;2.78;1.52;;;20.30;45.00;;;;;;5024766;28;20049;-80
2022/01/27 07:38:43;;;;;;;3.38;1.30;;;20.30;45.00;;;;;;5029319;28;20049;-80
2022/01/27 07:41:08;;;;;;;3.05;1.33;;;20.30;45.00;;;;;;5029466;28;20045;-80
2022/01/27 07:43:34;;;;;;;3.15;1.30;;;20.30;44.90;;;;;;5030863;28;20103;-80
2022/01/27 07:46:00;;;;;;;3.65;1.50;;;20.30;44.90;;;;;;5030657;28;20078;-80
2022/01/27 07:48:28;;;;;;;2.05;1.10;;;20.30;44.90;;;;;;5030023;28;20041;-80
2022/01/27 07:50:54;;;;;;;3.15;1.10;;;20.30;44.90;;;;;;5030435;28;20095;-80
2022/01/27 07:53:21;;;;;;;2.55;1.25;;;20.30;44.80;;;;;;5007387;28;20065;-80
2022/01/27 07:55:47;;;;;;;3.60;1.50;;;20.30;44.80;;;;;;5036791;28;20045;-80
2022/01/27 07:58:12;;;;;;;2.67;1.27;;;20.30;44.80;;;;;;5012663;28;20060;-80
2022/01/27 08:00:39;;;;;;;2.97;1.20;;;20.30;44.90;;;;;;5004516;28;20102;-80
2022/01/27 08:03:04;;;;;;;2.63;1.15;;;20.30;44.80;;;;;;5007960;28;20560;-80
2022/01/27 08:05:30;;;;;;;2.90;1.20;;;20.30;44.80;;;;;;4991224;28;20042;-80
2022/01/27 08:07:56;;;;;;;3.40;1.30;;;20.30;44.80;;;;;;4991363;28;20049;-80
2022/01/27 08:10:21;;;;;;;2.83;1.10;;;20.30;44.70;;;;;;4986645;28;20038;-79
2022/01/27 08:12:47;;;;;;;2.65;1.20;;;20.30;44.70;;;;;;5002969;28;20046;-80
2022/01/27 08:15:14;;;;;;;2.95;1.20;;;20.30;44.70;;;;;;5004042;28;20046;-80
2022/01/27 08:17:40;;;;;;;2.38;1.10;;;20.20;44.70;;;;;;5002990;28;20125;-80
2022/01/27 08:20:06;;;;;;;3.85;1.55;;;20.30;44.80;;;;;;4984237;28;20082;-79
2022/01/27 08:22:33;;;;;;;2.85;1.42;;;20.30;44.80;;;;;;4990284;28;20456;-80
2022/01/27 08:24:59;;;;;;;2.35;1.00;;;20.30;45.40;;;;;;4990264;28;20119;-80
2022/01/27 08:27:29;;;;;;;3.63;1.40;;;20.30;44.80;;;;;;4990545;28;20046;-80
2022/01/27 08:29:59;;;;;;;2.50;1.17;;;20.30;44.70;;;;;;4990828;28;20065;-80
2022/01/27 08:32:40;;;;;;;3.15;1.13;;;20.30;44.80;;;;;;4986333;28;20172;-80
2022/01/27 08:35:06;;;;;;;1.58;1.00;;;20.30;44.70;;;;;;4993354;28;20670;-80
2022/01/27 08:37:31;;;;;;;2.35;1.20;;;20.30;44.70;;;;;;4990937;28;20069;-80
2022/01/27 08:39:57;;;;;;;5.22;1.30;;;20.20;44.60;;;;;;4983218;28;20093;-80
2022/01/27 08:42:22;;;;;;;3.13;1.27;;;20.20;44.90;;;;;;5019448;28;20045;-80
2022/01/27 08:44:48;;;;;;;3.45;1.52;;;20.40;45.00;;;;;;5023886;28;20042;-80
2022/01/27 08:47:15;;;;;;;4.35;1.40;;;20.20;45.00;;;;;;4980827;28;20548;-80
2022/01/27 08:49:43;;;;;;;3.40;1.45;;;20.20;45.10;;;;;;4994609;28;20428;-81
2022/01/27 08:52:09;;;;;;;2.53;1.17;;;20.20;45.10;;;;;;4991471;28;21330;-80
2022/01/27 08:54:35;;;;;;;6.88;1.20;;;20.20;45.10;;;;;;5011969;28;20133;-79
2022/01/27 08:57:00;;;;;;;3.00;1.23;;;20.20;45.00;;;;;;5012134;28;20461;-80
2022/01/27 08:59:26;;;;;;;3.28;1.10;;;20.30;45.10;;;;;;4993674;28;20037;-79
2022/01/27 09:01:51;;;;;;;3.35;1.13;;;20.30;45.80;;;;;;4994169;28;20053;-80
2022/01/27 09:04:17;;;;;;;1.77;0.93;;;20.30;45.00;;;;;;4994306;28;20042;-79
2022/01/27 09:06:42;;;;;;;3.10;1.00;;;20.30;45.00;;;;;;4993740;28;20569;-79
2022/01/27 09:09:08;;;;;;;3.55;1.33;;;20.30;45.00;;;;;;4994569;28;20057;-79
2022/01/27 09:11:34;;;;;;;2.63;1.00;;;20.30;45.00;;;;;;4994400;28;20045;-79
2022/01/27 09:14:00;;;;;;;2.45;0.90;;;20.30;45.00;;;;;;4993590;28;20413;-79
2022/01/27 09:16:27;;;;;;;2.03;0.95;;;20.30;45.00;;;;;;5011648;28;20042;-79
2022/01/27 09:18:53;;;;;;;1.85;0.90;;;20.30;45.00;;;;;;4994323;28;20054;-79
2022/01/27 09:21:24;;;;;;;3.55;1.20;;;20.30;45.00;;;;;;4993489;28;20490;-79
2022/01/27 09:23:50;;;;;;;4.07;1.33;;;20.20;44.90;;;;;;4994145;28;20058;-79
2022/01/27 09:26:40;;;;;;;3.22;1.05;;;20.20;44.90;;;;;;4990546;28;20081;-79
2022/01/27 09:29:05;;;;;;;2.05;1.00;;;20.20;44.90;;;;;;4992391;28;20053;-79
2022/01/27 09:31:30;;;;;;;2.35;0.82;;;20.20;44.90;;;;;;4989519;28;20049;-79
2022/01/27 09:33:56;;;;;;;2.10;0.77;;;20.20;44.90;;;;;;4988613;28;20042;-79
2022/01/27 09:36:21;;;;;;;2.08;0.90;;;20.20;44.90;;;;;;4990893;28;20092;-78
2022/01/27 09:38:47;;;;;;;2.42;1.20;;;20.20;44.90;;;;;;4993868;28;20511;-80
2022/01/27 09:41:14;;;;;;;2.10;0.80;;;20.20;45.00;;;;;;4989836;28;20456;-79
2022/01/27 09:43:40;;;;;;;2.50;1.00;;;20.20;45.00;;;;;;4993362;28;20054;-79
2022/01/27 09:46:07;;;;;;;2.65;1.08;;;20.70;45.30;;;;;;4977388;28;20108;-80
2022/01/27 09:48:40;;;;;;;3.17;0.90;;;20.20;45.00;;;;;;4967583;28;20049;-80
2022/01/27 09:51:37;;;;;;;3.42;1.17;;;20.20;45.00;;;;;;4994466;28;20507;-80
2022/01/27 09:53:53;;;;;;;2.67;1.17;;;20.20;45.00;;;;;;4993035;28;20511;-79
2022/01/27 09:56:19;;;;;;;3.25;1.20;;;20.20;44.90;;;;;;5010008;28;20046;-79
2022/01/27 09:58:44;;;;;;;2.67;1.17;;;20.20;45.00;;;;;;4990395;28;20044;-78
2022/01/27 10:01:10;;;;;;;2.15;0.90;;;20.20;45.00;;;;;;4989103;28;20042;-80
2022/01/27 10:03:51;;;;;;;3.45;1.08;;;20.20;45.00;;;;;;4988888;28;20077;-79
2022/01/27 10:06:18;;;;;;;3.95;1.45;;;20.20;45.00;;;;;;4984204;28;20052;-79
2022/01/27 10:08:43;;;;;;;2.83;1.20;;;20.20;45.00;;;;;;4994647;28;20045;-78
2022/01/27 10:11:16;;;;;;;3.72;1.10;;;20.20;45.10;;;;;;5010390;28;20057;-79
2022/01/27 10:13:44;;;;;;;3.05;1.20;;;20.20;45.20;;;;;;4995056;28;20166;-79
2022/01/27 10:16:29;;;;;;;3.03;1.05;;;20.20;45.10;;;;;;4992176;28;20107;-80
2022/01/27 10:19:05;;;;;;;2.05;0.88;;;20.20;45.20;;;;;;5010426;28;20053;-79
2022/01/27 10:21:31;;;;;;;2.72;0.90;;;20.20;45.20;;;;;;5003280;28;20479;-79
2022/01/27 10:23:57;;;;;;;3.47;1.00;;;20.20;45.20;;;;;;5020924;28;20037;-74
2022/01/27 10:26:30;;;;;;;4.95;2.10;;;20.20;45.20;;;;;;5022178;28;20115;-76
2022/01/27 10:29:08;;;;;;;5.28;1.75;;;21.00;45.70;;;;;;5006684;28;20128;-75
2022/01/27 10:31:38;;;;;;;6.80;1.92;;;20.20;46.00;;;;;;5026418;28;20042;-79
2022/01/27 10:34:05;;;;;;;4.18;1.92;;;20.20;45.40;;;;;;5002699;28;20685;-81
2022/01/27 10:36:52;;;;;;;4.88;1.88;;;20.10;45.40;;;;;;5001430;28;20068;-79
2022/01/27 10:39:19;;;;;;;6.20;1.50;;;20.10;45.50;;;;;;5019078;28;20060;-80
2022/01/27 10:42:14;;;;;;;6.80;1.75;;;20.10;45.60;;;;;;5007870;28;20133;-79
2022/01/27 10:44:46;;;;;;;6.00;2.00;;;20.10;45.70;;;;;;4960503;28;20497;-81
2022/01/27 10:47:23;;;;;;;6.20;1.85;;;20.10;45.70;;;;;;4991134;28;20057;-81
2022/01/27 10:50:07;;;;;;;8.95;2.30;;;20.10;45.70;;;;;;4991253;28;20042;-78
2022/01/27 10:52:41;;;;;;;8.05;2.20;;;20.00;45.50;;;;;;4991394;28;20070;-78
2022/01/27 10:55:08;;;;;;;8.10;2.30;;;20.00;45.50;;;;;;4991906;28;20046;-78
2022/01/27 10:57:33;;;;;;;6.80;2.65;;;20.00;45.50;;;;;;4992118;28;20074;-78
2022/01/27 11:00:15;;;;;;;5.53;2.08;;;20.00;45.50;;;;;;4990239;28;20081;-79
2022/01/27 11:02:47;;;;;;;5.20;1.65;;;20.00;45.50;;;;;;4991137;28;20058;-79
2022/01/27 11:05:17;;;;;;;5.13;1.52;;;20.00;45.50;;;;;;4990847;28;20042;-78
2022/01/27 11:07:43;;;;;;;20.40;1.75;;;20.00;45.50;;;;;;4985018;28;20077;-78
2022/01/27 11:10:08;;;;;;;7.10;1.63;;;20.00;45.50;;;;;;4975972;28;20566;-78
2022/01/27 11:12:34;;;;;;;4.60;1.52;;;20.00;45.60;;;;;;4987152;28;20893;-79
2022/01/27 11:15:00;;;;;;;4.22;1.50;;;20.00;45.60;;;;;;4972637;28;20097;-78
2022/01/27 11:17:29;;;;;;;5.45;1.48;;;20.10;45.60;;;;;;4991819;28;20068;-78
2022/01/27 11:20:16;;;;;;;3.85;1.30;;;20.10;45.60;;;;;;5008270;28;20041;-79
2022/01/27 11:27:54;;;;;;;4.05;1.55;;;20.10;45.50;;;;;;4986960;28;20498;-78
2022/01/27 11:30:27;;;;;;;4.05;1.35;;;20.10;45.50;;;;;;4965671;28;20038;-79
2022/01/27 11:33:08;;;;;;;4.78;1.20;;;20.10;45.50;;;;;;5011046;28;20066;-78
2022/01/27 11:35:33;;;;;;;3.25;1.20;;;20.20;45.50;;;;;;5024771;28;20037;-78
2022/01/27 11:38:03;;;;;;;3.45;1.17;;;20.10;45.40;;;;;;5008344;28;20064;-79
2022/01/27 11:40:47;;;;;;;2.38;1.13;;;20.10;45.40;;;;;;5028210;28;20483;-78
2022/01/27 11:43:14;;;;;;;5.70;1.30;;;20.10;45.40;;;;;;5030422;28;20041;-79
2022/01/27 11:45:48;;;;;;;5.25;1.17;;;20.10;45.40;;;;;;5029972;28;20586;-78
2022/01/27 11:48:17;;;;;;;2.50;0.88;;;20.10;45.40;;;;;;5020788;28;20045;-79
2022/01/27 11:50:50;;;;;;;3.67;1.13;;;20.10;45.40;;;;;;5043430;28;20045;-79
2022/01/27 11:53:29;;;;;;;3.75;1.15;;;20.10;45.40;;;;;;5050718;28;20056;-78
2022/01/27 11:55:57;;;;;;;3.30;1.27;;;20.10;45.40;;;;;;5050190;28;20059;-78
2022/01/27 11:58:24;;;;;;;4.75;1.20;;;20.10;45.40;;;;;;5030013;28;20060;-78
2022/01/27 12:01:11;;;;;;;3.30;1.15;;;20.10;45.40;;;;;;5030590;28;20511;-79
2022/01/27 12:03:37;;;;;;;2.40;1.00;;;20.10;45.40;;;;;;4983969;28;20097;-79
2022/01/27 12:06:21;;;;;;;2.45;0.85;;;20.10;45.40;;;;;;4972506;28;20096;-78
2022/01/27 12:08:47;;;;;;;2.30;0.80;;;20.10;45.40;;;;;;5003567;28;20518;-79
2022/01/27 12:11:42;;;;;;;2.85;1.08;;;20.10;45.40;;;;;;4987574;28;20078;-78
2022/01/27 12:14:08;;;;;;;2.20;1.00;;;20.10;45.40;;;;;;4963834;28;20070;-79
2022/01/27 12:19:08;;;;;;;3.15;0.93;;;20.10;45.40;;;;;;4951901;28;20051;-78
2022/01/27 12:21:55;;;;;;;2.45;0.73;;;20.10;45.30;;;;;;4937380;29;20054;-79
2022/01/27 12:24:27;;;;;;;2.90;0.82;;;20.10;45.30;;;;;;4912857;28;20117;-79
2022/01/27 12:27:06;;;;;;;3.53;1.25;;;20.10;45.40;;;;;;5004833;28;20045;-78
2022/01/27 12:29:37;;;;;;;2.63;0.90;;;20.10;45.30;;;;;;5013918;28;20072;-77
2022/01/27 12:32:04;;;;;;;3.42;1.30;;;20.10;45.40;;;;;;5014054;28;20049;-80
2022/01/27 12:34:30;;;;;;;3.55;0.80;;;20.10;45.40;;;;;;5007918;28;20565;-79
2022/01/27 12:36:57;;;;;;;4.10;0.90;;;20.10;45.40;;;;;;5005513;28;20049;-79
2022/01/27 12:39:25;;;;;;;3.63;1.00;;;20.10;45.50;;;;;;5025264;28;20041;-78
2022/01/27 12:41:50;;;;;;;2.10;0.60;;;20.10;45.50;;;;;;5015778;28;20076;-78
2022/01/27 12:44:16;;;;;;;2.63;0.80;;;20.20;45.60;;;;;;5006516;28;20069;-78
2022/01/27 12:47:07;;;;;;;3.70;1.00;;;20.20;45.60;;;;;;5012193;28;20033;-78
2022/01/27 12:49:39;;;;;;;2.92;0.93;;;20.20;45.60;;;;;;5029955;28;20084;-80
2022/01/27 12:52:07;;;;;;;3.15;0.80;;;20.70;45.90;;;;;;5013753;28;20136;-79
2022/01/27 12:54:33;;;;;;;4.72;0.80;;;20.20;45.60;;;;;;5012714;28;20060;-80
2022/01/27 12:56:58;;;;;;;3.15;0.90;;;20.20;45.60;;;;;;5013979;28;20053;-79
2022/01/27 12:59:28;;;;;;;2.28;0.70;;;20.20;45.50;;;;;;5012010;28;20072;-78
2022/01/27 13:02:07;;;;;;;1.83;0.75;;;20.20;45.60;;;;;;5006952;28;20049;-79
2022/01/27 13:04:33;;;;;;;2.17;0.65;;;20.30;45.60;;;;;;5002809;28;20160;-79
2022/01/27 13:06:59;;;;;;;3.58;0.90;;;20.30;45.50;;;;;;5012899;28;20084;-79
2022/01/27 13:09:26;;;;;;;2.75;0.60;;;20.30;45.60;;;;;;4997993;28;20073;-79
2022/01/27 13:11:54;;;;;;;2.63;0.73;;;20.30;45.50;;;;;;5046606;28;20094;-79
2022/01/27 13:14:19;;;;;;;2.20;0.80;;;20.30;45.60;;;;;;5032607;28;20118;-79
2022/01/27 13:16:50;;;;;;;2.17;0.63;;;20.40;45.60;;;;;;5012974;28;20049;-79
2022/01/27 13:19:23;;;;;;;1.90;0.75;;;20.40;45.60;;;;;;5027549;28;20088;-79
2022/01/27 13:22:02;;;;;;;3.05;0.70;;;20.40;45.50;;;;;;5012103;28;20045;-79
2022/01/27 13:24:30;;;;;;;3.00;0.88;;;20.40;45.50;;;;;;5005611;28;20056;-79
2022/01/27 13:27:08;;;;;;;3.00;0.90;;;20.40;45.50;;;;;;5010348;28;20037;-79
2022/01/27 13:29:41;;;;;;;2.45;0.73;;;20.40;45.40;;;;;;5035256;28;20079;-79
2022/01/27 13:32:08;;;;;;;5.68;1.17;;;20.40;45.40;;;;;;4997553;28;20053;-79
2022/01/27 13:34:33;;;;;;;3.25;0.70;;;20.40;45.40;;;;;;4994080;28;20033;-79
2022/01/27 13:37:01;;;;;;;2.35;0.80;;;20.40;45.30;;;;;;4991700;28;20049;-80